createdAt,value
2023-08-10T00:00:30.676Z,14.47
2023-08-10T00:02:57.317Z,14.51
2023-08-10T00:05:23.945Z,14.48
2023-08-10T00:07:52.214Z,14.51
2023-08-10T00:10:18.796Z,14.54
2023-08-10T00:12:45.256Z,14.57
2023-08-10T00:15:11.869Z,14.61
2023-08-10T00:17:38.574Z,14.61
2023-08-10T00:20:08.663Z,14.61
2023-08-10T00:22:35.225Z,14.62
2023-08-10T00:25:01.693Z,14.63
2023-08-10T00:27:28.186Z,14.68
2023-08-10T00:29:55.064Z,14.73
2023-08-10T00:32:22.638Z,14.71
2023-08-10T00:34:49.281Z,14.70
2023-08-10T00:37:16.144Z,14.75
2023-08-10T00:39:42.790Z,14.78
2023-08-10T00:42:09.329Z,14.82
2023-08-10T00:44:35.818Z,14.82
2023-08-10T00:47:02.385Z,14.84
2023-08-10T00:49:28.891Z,14.82
2023-08-10T00:51:55.375Z,14.84
2023-08-10T00:54:21.863Z,14.84
2023-08-10T00:56:48.433Z,14.83
2023-08-10T00:59:14.925Z,14.84
2023-08-10T01:01:41.514Z,14.85
2023-08-10T01:04:07.962Z,14.83
2023-08-10T01:06:49.551Z,14.82
2023-08-10T01:09:28.827Z,14.83
2023-08-10T01:12:18.526Z,14.83
2023-08-10T01:14:53.033Z,14.80
2023-08-10T01:17:27.413Z,14.82
2023-08-10T01:19:55.948Z,14.85
2023-08-10T01:22:51.425Z,14.91
2023-08-10T01:25:21.073Z,14.88
2023-08-10T01:27:48.332Z,14.87
2023-08-10T01:30:15.129Z,14.89
2023-08-10T01:32:41.807Z,14.89
2023-08-10T01:35:08.600Z,14.94
2023-08-10T01:37:35.200Z,14.94
2023-08-10T01:40:02.071Z,14.94
2023-08-10T01:42:29.480Z,14.96
2023-08-10T01:44:56.000Z,14.94
2023-08-10T01:47:33.162Z,14.98
2023-08-10T01:50:03.065Z,14.93
2023-08-10T01:52:38.767Z,14.92
2023-08-10T01:55:08.349Z,14.83
2023-08-10T01:57:35.062Z,14.77
2023-08-10T02:00:01.773Z,14.74
2023-08-10T02:02:28.321Z,14.70
2023-08-10T02:04:54.805Z,14.63
2023-08-10T02:07:21.325Z,14.56
2023-08-10T02:09:47.859Z,14.47
2023-08-10T02:12:14.384Z,14.38
2023-08-10T02:14:41.046Z,14.32
2023-08-10T02:17:07.515Z,14.26
2023-08-10T02:19:33.943Z,14.19
2023-08-10T02:22:00.562Z,14.12
2023-08-10T02:24:27.094Z,14.04
2023-08-10T02:26:53.622Z,13.97
2023-08-10T02:29:20.140Z,13.87
2023-08-10T02:31:48.124Z,13.83
2023-08-10T02:34:14.900Z,13.79
2023-08-10T02:36:41.417Z,13.79
2023-08-10T02:39:07.949Z,13.81
2023-08-10T02:41:34.438Z,13.81
2023-08-10T02:44:00.864Z,13.80
2023-08-10T02:46:27.594Z,13.79
2023-08-10T02:48:55.522Z,13.77
2023-08-10T02:51:21.980Z,13.77
2023-08-10T02:53:48.458Z,13.80
2023-08-10T02:56:14.930Z,13.78
2023-08-10T02:58:41.661Z,13.74
2023-08-10T03:01:09.017Z,13.73
2023-08-10T03:03:36.021Z,13.76
2023-08-10T03:06:03.201Z,13.79
2023-08-10T03:08:29.764Z,13.77
2023-08-10T03:10:56.272Z,13.74
2023-08-10T03:13:22.916Z,13.76
2023-08-10T03:15:49.412Z,13.78
2023-08-10T03:18:15.956Z,13.78
2023-08-10T03:20:42.455Z,13.79
2023-08-10T03:23:08.980Z,13.77
2023-08-10T03:25:37.971Z,13.76
2023-08-10T03:28:04.949Z,13.69
2023-08-10T03:30:31.639Z,13.68
2023-08-10T03:32:58.105Z,13.68
2023-08-10T03:35:24.617Z,13.66
2023-08-10T03:37:51.257Z,13.67
2023-08-10T03:40:17.829Z,13.64
2023-08-10T03:42:44.496Z,13.63
2023-08-10T03:45:11.290Z,13.65
2023-08-10T03:47:37.872Z,13.66
2023-08-10T03:50:05.058Z,13.65
2023-08-10T03:52:31.631Z,13.60
2023-08-10T03:54:58.136Z,13.54
2023-08-10T03:57:24.748Z,13.49
2023-08-10T03:59:51.330Z,13.44
2023-08-10T04:02:17.806Z,13.39
2023-08-10T04:04:44.288Z,13.35
2023-08-10T04:07:10.788Z,13.30
2023-08-10T04:09:37.286Z,13.27
2023-08-10T04:12:04.138Z,13.26
2023-08-10T04:14:30.861Z,13.26
2023-08-10T04:16:58.216Z,13.23
2023-08-10T04:19:24.905Z,13.20
2023-08-10T04:21:51.426Z,13.17
2023-08-10T04:24:17.940Z,13.13
2023-08-10T04:26:44.484Z,13.10
2023-08-10T04:29:11.031Z,13.08
2023-08-10T04:31:37.649Z,13.07
2023-08-10T04:34:04.302Z,13.05
2023-08-10T04:36:30.991Z,13.03
2023-08-10T04:38:57.448Z,13.04
2023-08-10T04:41:27.196Z,13.04
2023-08-10T04:43:53.714Z,13.04
2023-08-10T04:46:20.431Z,13.02
2023-08-10T04:48:46.998Z,12.99
2023-08-10T04:51:13.562Z,12.97
2023-08-10T04:53:40.026Z,12.95
2023-08-10T04:56:06.443Z,12.93
2023-08-10T04:58:33.006Z,12.95
2023-08-10T05:00:59.585Z,12.95
2023-08-10T05:03:26.198Z,12.95
2023-08-10T05:05:53.071Z,12.97
2023-08-10T05:08:20.207Z,13.01
2023-08-10T05:10:47.036Z,13.02
2023-08-10T05:13:13.460Z,13.06
2023-08-10T05:15:39.948Z,13.12
2023-08-10T05:18:06.898Z,13.18
2023-08-10T05:20:33.733Z,13.24
2023-08-10T05:23:00.317Z,13.33
2023-08-10T05:25:26.818Z,13.40
2023-08-10T05:27:53.391Z,13.45
2023-08-10T05:30:19.900Z,13.49
2023-08-10T05:32:46.539Z,13.51
2023-08-10T05:35:14.612Z,13.55
2023-08-10T05:37:41.907Z,13.61
2023-08-10T05:40:11.150Z,13.70
2023-08-10T05:42:38.599Z,13.80
2023-08-10T05:45:07.661Z,13.86
2023-08-10T05:47:34.792Z,13.95
2023-08-10T05:50:01.717Z,14.03
2023-08-10T05:52:28.223Z,14.10
2023-08-10T05:54:55.000Z,14.19
2023-08-10T05:57:21.645Z,14.27
2023-08-10T05:59:48.190Z,14.36
2023-08-10T06:02:14.747Z,14.45
2023-08-10T06:04:44.791Z,14.58
2023-08-10T06:07:11.345Z,14.69
2023-08-10T06:09:37.926Z,14.80
2023-08-10T06:12:05.127Z,14.88
2023-08-10T06:14:31.913Z,15.02
2023-08-10T06:16:58.484Z,15.17
2023-08-10T06:19:25.142Z,15.31
2023-08-10T06:21:54.186Z,15.45
2023-08-10T06:24:20.635Z,15.58
2023-08-10T06:26:47.261Z,15.67
2023-08-10T06:29:13.807Z,15.77
2023-08-10T06:31:40.389Z,15.86
2023-08-10T06:34:07.087Z,15.95
2023-08-10T06:36:34.787Z,16.06
2023-08-10T06:39:02.258Z,16.14
2023-08-10T06:41:28.734Z,16.19
2023-08-10T06:43:55.944Z,16.30
2023-08-10T06:46:22.703Z,16.42
2023-08-10T06:48:49.823Z,16.58
2023-08-10T06:51:16.523Z,16.74
2023-08-10T06:53:43.033Z,16.87
2023-08-10T06:56:09.629Z,16.99
2023-08-10T07:01:07.008Z,17.04
2023-08-10T07:03:33.588Z,17.12
2023-08-10T07:06:00.035Z,17.11
2023-08-10T07:08:27.100Z,17.16
2023-08-10T07:10:53.644Z,17.25
2023-08-10T07:13:20.164Z,17.38
2023-08-10T07:15:47.793Z,17.42
2023-08-10T07:18:17.181Z,17.42
2023-08-10T07:20:44.283Z,17.36
2023-08-10T07:23:12.395Z,17.39
2023-08-10T07:25:38.942Z,17.44
2023-08-10T07:28:08.248Z,17.48
2023-08-10T07:30:34.910Z,17.54
2023-08-10T07:33:01.572Z,17.60
2023-08-10T07:35:28.352Z,17.73
2023-08-10T07:37:54.946Z,17.76
2023-08-10T07:40:21.503Z,17.98
2023-08-10T07:42:48.008Z,18.23
2023-08-10T07:45:14.621Z,18.38
2023-08-10T07:47:42.308Z,18.34
2023-08-10T07:50:09.594Z,18.27
2023-08-10T07:52:36.152Z,18.19
2023-08-10T07:55:02.867Z,18.12
2023-08-10T07:57:31.083Z,18.15
2023-08-10T07:59:58.482Z,18.10
2023-08-10T08:02:28.468Z,18.06
2023-08-10T08:04:55.439Z,18.03
2023-08-10T08:07:22.066Z,17.99
2023-08-10T08:09:48.505Z,17.97
2023-08-10T08:12:15.049Z,17.95
2023-08-10T08:14:42.272Z,17.99
2023-08-10T08:17:08.861Z,18.02
2023-08-10T08:19:37.482Z,18.03
2023-08-10T08:22:04.412Z,18.07
2023-08-10T08:24:31.217Z,18.16
2023-08-10T08:26:58.045Z,18.23
2023-08-10T08:29:24.664Z,18.30
2023-08-10T08:31:51.224Z,18.36
2023-08-10T08:34:18.103Z,18.45
2023-08-10T08:36:45.864Z,18.56
2023-08-10T08:39:12.334Z,18.57
2023-08-10T08:41:39.536Z,18.76
2023-08-10T08:44:07.761Z,18.98
2023-08-10T08:46:38.637Z,19.15
2023-08-10T08:49:06.451Z,19.20
2023-08-10T08:51:33.809Z,19.25
2023-08-10T08:54:03.168Z,19.35
2023-08-10T08:56:31.806Z,19.49
2023-08-10T08:58:59.510Z,19.55
2023-08-10T09:01:27.429Z,19.79
2023-08-10T09:03:54.448Z,19.89
2023-08-10T09:06:21.116Z,19.87
2023-08-10T09:08:47.632Z,20.02
2023-08-10T09:11:15.443Z,20.07
2023-08-10T09:13:42.104Z,20.06
2023-08-10T09:16:10.002Z,19.91
2023-08-10T09:18:39.062Z,20.00
2023-08-10T09:21:24.664Z,20.04
2023-08-10T09:23:57.449Z,19.98
2023-08-10T09:26:25.273Z,20.06
2023-08-10T09:28:52.591Z,20.30
2023-08-10T09:31:27.989Z,20.58
2023-08-10T09:34:01.435Z,20.75
2023-08-10T09:36:29.889Z,20.87
2023-08-10T09:39:01.201Z,20.81
2023-08-10T09:41:31.591Z,20.64
2023-08-10T09:43:58.229Z,20.83
2023-08-10T09:46:25.108Z,20.87
2023-08-10T09:48:52.126Z,20.77
2023-08-10T09:51:19.011Z,20.84
2023-08-10T09:53:46.124Z,20.94
2023-08-10T09:56:13.092Z,21.05
2023-08-10T09:58:42.345Z,21.17
2023-08-10T10:01:13.340Z,21.18
2023-08-10T10:03:42.154Z,21.03
2023-08-10T10:06:09.482Z,21.12
2023-08-10T10:08:37.803Z,21.23
2023-08-10T10:11:11.094Z,21.47
2023-08-10T10:13:37.997Z,21.48
2023-08-10T10:16:05.183Z,21.36
2023-08-10T10:18:32.390Z,21.41
2023-08-10T10:20:59.536Z,21.49
2023-08-10T10:23:30.492Z,21.62
2023-08-10T10:26:05.552Z,21.69
2023-08-10T10:28:34.257Z,21.65
2023-08-10T10:31:13.843Z,21.90
2023-08-10T10:33:55.688Z,21.70
2023-08-10T10:36:23.869Z,21.37
2023-08-10T10:38:57.508Z,21.21
2023-08-10T10:41:35.982Z,21.35
2023-08-10T10:44:06.665Z,21.30
2023-08-10T10:46:42.328Z,21.32
2023-08-10T10:49:14.084Z,21.36
2023-08-10T10:52:05.194Z,21.48
2023-08-10T10:54:35.566Z,21.55
2023-08-10T10:57:02.559Z,21.60
2023-08-10T10:59:29.100Z,21.62
2023-08-10T11:01:56.075Z,21.67
2023-08-10T11:04:23.955Z,21.79
2023-08-10T11:06:50.480Z,21.78
2023-08-10T11:09:17.064Z,21.97
2023-08-10T11:11:49.525Z,22.00
2023-08-10T11:14:17.002Z,21.88
2023-08-10T11:16:45.042Z,21.90
2023-08-10T11:19:14.429Z,21.95
2023-08-10T11:21:45.794Z,21.99
2023-08-10T11:24:12.504Z,22.04
2023-08-10T11:26:39.196Z,21.96
2023-08-10T11:29:06.037Z,21.93
2023-08-10T11:31:43.887Z,22.03
2023-08-10T11:34:22.197Z,21.97
2023-08-10T11:36:49.962Z,22.03
2023-08-10T11:39:16.694Z,22.02
2023-08-10T11:41:44.902Z,21.99
2023-08-10T11:44:21.698Z,21.93
2023-08-10T11:46:50.328Z,21.93
2023-08-10T11:49:17.049Z,21.84
2023-08-10T11:51:44.032Z,21.68
2023-08-10T11:54:11.116Z,21.66
2023-08-10T11:56:46.995Z,21.75
2023-08-10T11:59:15.561Z,21.71
2023-08-10T12:01:52.629Z,21.73
2023-08-10T12:04:20.679Z,21.87
2023-08-10T12:06:47.580Z,21.82
2023-08-10T12:09:14.437Z,21.67
2023-08-10T12:11:42.844Z,21.71
2023-08-10T12:14:09.839Z,22.00
2023-08-10T12:16:36.570Z,22.12
2023-08-10T12:19:03.237Z,22.17
2023-08-10T12:21:30.054Z,22.28
2023-08-10T12:23:56.613Z,22.45
2023-08-10T12:26:24.008Z,22.37
2023-08-10T12:28:50.813Z,22.33
2023-08-10T12:31:17.540Z,22.40
2023-08-10T12:33:44.251Z,22.38
2023-08-10T12:36:10.819Z,22.17
2023-08-10T12:38:37.341Z,22.17
2023-08-10T12:41:04.072Z,22.13
2023-08-10T12:43:30.571Z,22.13
2023-08-10T12:45:57.236Z,22.06
2023-08-10T12:48:23.892Z,22.01
2023-08-10T12:50:50.708Z,22.07
2023-08-10T12:53:17.404Z,22.25
2023-08-10T12:55:43.897Z,22.29
2023-08-10T12:58:12.720Z,22.19
2023-08-10T13:00:39.342Z,22.30
2023-08-10T13:03:05.977Z,22.41
2023-08-10T13:05:32.775Z,22.45
2023-08-10T13:07:59.717Z,22.45
2023-08-10T13:10:26.297Z,22.47
2023-08-10T13:12:53.280Z,22.42
2023-08-10T13:15:20.064Z,22.45
2023-08-10T13:17:46.708Z,22.52
2023-08-10T13:20:13.340Z,22.59
2023-08-10T13:22:40.142Z,22.55
2023-08-10T13:25:07.338Z,22.57
2023-08-10T13:27:34.221Z,22.71
2023-08-10T13:30:00.816Z,22.67
2023-08-10T13:32:27.416Z,22.64
2023-08-10T13:34:56.403Z,22.68
2023-08-10T13:37:23.110Z,22.68
2023-08-10T13:39:49.593Z,22.82
2023-08-10T13:42:16.097Z,22.98
2023-08-10T13:44:42.605Z,23.04
2023-08-10T13:47:09.057Z,23.09
2023-08-10T13:49:49.487Z,23.09
2023-08-10T13:52:20.105Z,22.92
2023-08-10T13:54:46.731Z,22.97
2023-08-10T13:57:13.309Z,22.96
2023-08-10T13:59:41.135Z,22.94
2023-08-10T14:02:09.545Z,22.90
2023-08-10T14:04:36.904Z,22.97
2023-08-10T14:07:05.308Z,23.02
2023-08-10T14:09:32.875Z,22.98
2023-08-10T14:12:00.156Z,22.93
2023-08-10T14:14:27.761Z,22.84
2023-08-10T14:16:55.195Z,22.84
2023-08-10T14:19:23.293Z,22.84
2023-08-10T14:21:50.124Z,22.84
2023-08-10T14:24:17.050Z,22.89
2023-08-10T14:26:44.277Z,22.93
2023-08-10T14:29:10.915Z,22.94
2023-08-10T14:31:38.109Z,22.99
2023-08-10T14:34:04.832Z,22.97
2023-08-10T14:36:31.482Z,22.87
2023-08-10T14:38:58.086Z,22.84
2023-08-10T14:41:24.969Z,22.79
2023-08-10T14:43:51.609Z,22.70
2023-08-10T14:46:18.963Z,22.69
2023-08-10T14:48:45.557Z,22.77
2023-08-10T14:51:12.052Z,22.83
2023-08-10T14:53:38.773Z,22.86
2023-08-10T14:56:05.547Z,22.88
2023-08-10T14:58:32.097Z,22.78
2023-08-10T15:00:58.760Z,22.86
2023-08-10T15:03:25.452Z,22.90
2023-08-10T15:05:52.032Z,22.96
2023-08-10T15:08:18.823Z,22.96
2023-08-10T15:10:45.735Z,22.96
2023-08-10T15:13:12.235Z,22.91
2023-08-10T15:15:38.821Z,22.95
2023-08-10T15:18:05.634Z,22.91
2023-08-10T15:20:32.284Z,22.94
2023-08-10T15:23:09.317Z,22.90
2023-08-10T15:25:37.224Z,22.86
2023-08-10T15:28:04.433Z,22.86
2023-08-10T15:30:31.044Z,22.78
2023-08-10T15:32:58.326Z,22.73
2023-08-10T15:35:24.872Z,22.69
2023-08-10T15:37:51.534Z,22.66
2023-08-10T15:40:18.208Z,22.64
2023-08-10T15:42:44.738Z,22.63
2023-08-10T15:45:11.270Z,22.65
2023-08-10T15:47:37.997Z,22.72
2023-08-10T15:50:06.046Z,22.72
2023-08-10T15:52:33.295Z,22.71
2023-08-10T15:54:59.830Z,22.73
2023-08-10T15:57:26.366Z,22.70
2023-08-10T15:59:53.083Z,22.65
2023-08-10T16:02:21.343Z,22.64
2023-08-10T16:04:47.928Z,22.67
2023-08-10T16:07:14.376Z,22.64
2023-08-10T16:09:40.903Z,22.56
2023-08-10T16:12:08.407Z,22.50
2023-08-10T16:14:35.276Z,22.50
2023-08-10T16:17:01.839Z,22.49
2023-08-10T16:19:28.453Z,22.48
2023-08-10T16:21:54.974Z,22.49
2023-08-10T16:24:21.421Z,22.47
2023-08-10T16:26:47.863Z,22.46
2023-08-10T16:29:14.456Z,22.46
2023-08-10T16:31:40.972Z,22.46
2023-08-10T16:34:08.834Z,22.41
2023-08-10T16:36:35.334Z,22.38
2023-08-10T16:39:01.830Z,22.38
2023-08-10T16:41:28.425Z,22.39
2023-08-10T16:43:56.349Z,22.35
2023-08-10T16:46:23.341Z,22.31
2023-08-10T16:48:50.446Z,22.28
2023-08-10T16:51:17.017Z,22.25
2023-08-10T16:53:43.649Z,22.26
2023-08-10T16:56:10.783Z,22.26
2023-08-10T16:58:37.373Z,22.22
2023-08-10T17:01:04.427Z,22.16
2023-08-10T17:03:31.022Z,22.15
2023-08-10T17:05:57.554Z,22.13
2023-08-10T17:08:24.076Z,22.12
2023-08-10T17:10:50.555Z,22.13
2023-08-10T17:13:17.038Z,22.11
2023-08-10T17:15:43.618Z,22.10
2023-08-10T17:18:10.191Z,22.11
2023-08-10T17:20:36.766Z,22.09
2023-08-10T17:23:03.310Z,22.08
2023-08-10T17:25:29.822Z,22.11
2023-08-10T17:27:56.361Z,22.12
2023-08-10T17:30:22.935Z,22.14
2023-08-10T17:32:49.625Z,22.11
2023-08-10T17:35:16.923Z,22.03
2023-08-10T17:37:43.568Z,21.98
2023-08-10T17:40:11.263Z,21.98
2023-08-10T17:42:38.754Z,22.02
2023-08-10T17:45:05.864Z,22.03
2023-08-10T17:47:35.405Z,22.01
2023-08-10T17:50:02.082Z,21.98
2023-08-10T17:52:28.584Z,21.98
2023-08-10T17:54:55.079Z,21.96
2023-08-10T17:57:21.614Z,21.90
2023-08-10T17:59:48.094Z,21.83
2023-08-10T18:02:14.659Z,21.78
2023-08-10T18:04:41.217Z,21.75
2023-08-10T18:07:07.733Z,21.69
2023-08-10T18:09:34.553Z,21.66
2023-08-10T18:12:01.102Z,21.62
2023-08-10T18:14:27.607Z,21.57
2023-08-10T18:16:54.107Z,21.53
2023-08-10T18:19:20.650Z,21.47
2023-08-10T18:21:47.231Z,21.41
2023-08-10T18:24:13.826Z,21.32
2023-08-10T18:26:49.385Z,21.27
2023-08-10T18:29:15.901Z,21.06
2023-08-10T18:31:42.445Z,20.94
2023-08-10T18:34:08.930Z,20.85
2023-08-10T18:36:35.412Z,20.82
2023-08-10T18:39:01.994Z,20.82
2023-08-10T18:41:28.486Z,20.79
2023-08-10T18:43:56.683Z,20.70
2023-08-10T18:46:23.369Z,20.57
2023-08-10T18:48:49.836Z,20.50
2023-08-10T18:51:16.286Z,20.41
2023-08-10T18:53:42.801Z,20.31
2023-08-10T18:56:09.315Z,20.22
2023-08-10T18:58:35.819Z,20.15
2023-08-10T19:01:02.341Z,20.08
2023-08-10T19:03:29.005Z,20.01
2023-08-10T19:05:55.544Z,19.91
2023-08-10T19:08:22.126Z,19.82
2023-08-10T19:10:53.229Z,19.77
2023-08-10T19:13:21.134Z,19.64
2023-08-10T19:15:58.456Z,19.64
2023-08-10T19:18:25.181Z,19.54
2023-08-10T19:20:51.702Z,19.44
2023-08-10T19:23:18.181Z,19.32
2023-08-10T19:25:46.283Z,19.20
2023-08-10T19:28:14.076Z,19.08
2023-08-10T19:30:40.730Z,18.99
2023-08-10T19:33:07.322Z,18.88
2023-08-10T19:35:34.094Z,18.80
2023-08-10T19:38:00.734Z,18.73
2023-08-10T19:40:27.673Z,18.66
2023-08-10T19:42:54.591Z,18.58
2023-08-10T19:45:21.076Z,18.53
2023-08-10T19:47:47.683Z,18.50
2023-08-10T19:50:14.313Z,18.41
2023-08-10T19:52:42.435Z,18.36
2023-08-10T19:55:10.359Z,18.25
2023-08-10T19:57:36.916Z,18.22
2023-08-10T20:00:03.878Z,18.16
2023-08-10T20:02:30.377Z,18.16
2023-08-10T20:04:57.156Z,18.12
2023-08-10T20:07:23.684Z,18.09
2023-08-10T20:09:50.276Z,18.08
2023-08-10T20:12:17.013Z,18.07
2023-08-10T20:14:43.548Z,18.06
2023-08-10T20:17:10.085Z,18.05
2023-08-10T20:19:38.195Z,18.00
2023-08-10T20:22:06.612Z,17.95
2023-08-10T20:24:35.157Z,17.88
2023-08-10T20:27:09.569Z,17.82
2023-08-10T20:29:37.226Z,17.77
2023-08-10T20:32:06.927Z,17.69
2023-08-10T20:34:34.220Z,17.64
2023-08-10T20:37:01.039Z,17.60
2023-08-10T20:39:28.395Z,17.52
2023-08-10T20:41:54.888Z,17.47
2023-08-10T20:44:21.493Z,17.43
2023-08-10T20:46:48.823Z,17.40
2023-08-10T20:49:15.464Z,17.35
2023-08-10T20:51:41.962Z,17.29
2023-08-10T20:54:08.807Z,17.25
2023-08-10T20:56:35.373Z,17.20
2023-08-10T20:59:01.886Z,17.16
2023-08-10T21:01:28.684Z,17.14
2023-08-10T21:03:55.844Z,17.12
2023-08-10T21:06:22.785Z,17.11
2023-08-10T21:08:49.433Z,17.08
2023-08-10T21:11:16.354Z,17.06
2023-08-10T21:13:43.047Z,17.05
2023-08-10T21:16:10.878Z,17.07
2023-08-10T21:18:37.564Z,17.05
2023-08-10T21:21:04.128Z,17.04
2023-08-10T21:23:30.719Z,17.04
2023-08-10T21:26:00.247Z,17.05
2023-08-10T21:28:27.043Z,17.08
2023-08-10T21:30:53.686Z,17.06
2023-08-10T21:33:22.099Z,17.06
2023-08-10T21:35:48.631Z,17.05
2023-08-10T21:38:15.262Z,17.04
2023-08-10T21:40:41.816Z,17.04
2023-08-10T21:43:09.063Z,17.01
2023-08-10T21:45:35.567Z,16.99
2023-08-10T21:48:02.230Z,17.00
2023-08-10T21:50:29.586Z,16.96
2023-08-10T21:52:56.168Z,16.91
2023-08-10T21:55:22.791Z,16.84
2023-08-10T21:57:49.245Z,16.81
2023-08-10T22:00:18.439Z,16.78
2023-08-10T22:02:45.142Z,16.72
2023-08-10T22:05:11.735Z,16.66
2023-08-10T22:07:38.282Z,16.61
2023-08-10T22:10:05.104Z,16.55
2023-08-10T22:12:31.642Z,16.54
2023-08-10T22:14:58.169Z,16.47
2023-08-10T22:17:25.023Z,16.49
2023-08-10T22:19:51.650Z,16.48
2023-08-10T22:22:18.983Z,16.44
2023-08-10T22:24:48.940Z,16.48
2023-08-10T22:27:15.777Z,16.45
2023-08-10T22:29:43.984Z,16.46
2023-08-10T22:32:10.811Z,16.45
2023-08-10T22:34:37.587Z,16.46
2023-08-10T22:37:04.252Z,16.49
2023-08-10T22:39:30.843Z,16.48
2023-08-10T22:41:57.371Z,16.46
2023-08-10T22:44:23.958Z,16.44
2023-08-10T22:46:50.453Z,16.42
2023-08-10T22:49:17.545Z,16.44
2023-08-10T22:51:44.455Z,16.43
2023-08-10T22:54:11.183Z,16.38
2023-08-10T22:56:37.857Z,16.36
2023-08-10T22:59:05.000Z,16.31
2023-08-10T23:01:31.666Z,16.26
2023-08-10T23:03:58.274Z,16.23
2023-08-10T23:06:24.816Z,16.21
2023-08-10T23:08:51.311Z,16.17
2023-08-10T23:11:17.796Z,16.16
2023-08-10T23:13:44.358Z,16.17
2023-08-10T23:16:10.982Z,16.17
2023-08-10T23:18:37.463Z,16.13
2023-08-10T23:21:04.472Z,16.09
2023-08-10T23:23:32.058Z,16.07
2023-08-10T23:25:58.584Z,16.03
2023-08-10T23:28:25.193Z,16.03
2023-08-10T23:30:55.435Z,16.05
2023-08-10T23:33:22.283Z,15.99
2023-08-10T23:35:48.783Z,16.00
2023-08-10T23:38:16.096Z,15.97
2023-08-10T23:40:42.625Z,15.97
2023-08-10T23:43:09.171Z,15.95
2023-08-10T23:45:37.111Z,15.94
2023-08-10T23:48:04.277Z,15.94
2023-08-10T23:50:30.805Z,15.89
2023-08-10T23:52:57.317Z,15.85
2023-08-10T23:55:23.945Z,15.83
2023-08-10T23:57:50.418Z,15.80
